VTSE/CJM METAR and TAF weather

Enter ICAO airport designator
Station Type Date Time Source
VTSE METAR 2020/04/03 08:00 UTC NOAA

VTSE 030800Z 13007KT 080V170 9999 FEW024 33/26 Q1009 NOSIG


Station Type Date Time Source
VTSE Decoded METAR 2020/04/03 08:00 UTC NOAA

Station name not available
Apr 03, 2020 - 04:00 AM EDT / 2020.04.03 0800 UTC
Wind: from the SE (130 degrees) at 8 MPH (7 KT) (direction variable):0
Visibility: greater than 7 mile(s):0
Sky conditions: mostly clear
Temperature: 91 F (33 C)
Heat index: 106.2 F (41.2 C):1
Dew Point: 78 F (26 C)
Relative Humidity: 66%
Pressure (altimeter): 29.80 in. Hg (1009 hPa)
ob: VTSE 030800Z 13007KT 080V170 9999 FEW024 33/26 Q1009 NOSIG
cycle: 8

Station Type Date Time Source
VTSE TAF 2020/04/03 06:00 UTC NOAA

TAF VTSE 030500Z 0306/0406 13008KT 9999 FEW020

Example: see airport list